• Join FlightAware (Why Join?)
  • Login
  • US Flag 
06:29PM EST


 

Airport Tracker/Info


-or-


 

Live Flight TrackerFlight Track Log ✈ ASQ5973 ✈ 26-Apr-2014 ✈ KORD - CYOW

Flight Track Log - Related Links

Times and Time Zones

All times are in EDT time to prevent confusion due to time zone crossing. See the ASQ5973 flight status page for this flight to view local times or setup timezone preferences in your user account.

Time Position Orientation Groundspeed Altitude Reporting Facility
EDT Latitude Longitude Course Direction KTS MPH feet Rate Location/Type
12:18PM 42.0167 -87.8333 71° East 189 217 3,300  Level Chicago TRACON
12:19PM 42.0253 -87.8014 70° East 196 226 3,900 1,753 Climbing Chicago Center
12:21PM 42.0494 -87.5892 81° East 293 337 7,800 1,881 Climbing Chicago Center
12:22PM 42.0922 -87.4944 59° Northeast 294 338 9,700 1,645 Climbing Chicago Center
12:23PM 42.2086 -87.2410 66° East  Level FlightAware Approximate
12:23PM 42.1414 -87.3836 59° Northeast 316 364 11,200  Level Chicago Center
12:24PM 42.2570 -87.1055 71° East  Level FlightAware Approximate
12:24PM 42.1919 -87.2686 59° Northeast 355 409 12,300  Level Chicago Center
12:25PM 42.2444 -87.1456 60° Northeast 376 433 13,300 1,024 Climbing Chicago Center
12:26PM 42.2792 -86.9953 73° East 409 471 14,400 1,317 Climbing Chicago Center
12:27PM 42.2881 -86.8439 85° East 409 471 16,000 1,500 Climbing Chicago Center
12:28PM 42.2925 -86.6928 88° East 407 468 17,500 1,306 Climbing Chicago Center
12:29PM 42.2992 -86.5511 86° East 406 467 18,700 1,258 Climbing Chicago Center
12:30PM 42.3056 -86.3719 87° East 417 480 20,100 1,258 Climbing Chicago Center
12:31PM 42.3114 -86.2114 87° East 424 488 21,300 1,220 Climbing Chicago Center
12:32PM 42.3147 -86.0503 88° East 429 494 22,600 829 Climbing Chicago Center
12:33PM 42.3131 -85.8825 91° East 443 510 23,000 194 Climbing Chicago Center
12:34PM 42.3097 -85.6750 91° East 458 527 23,000  Level Chicago Center
12:35PM 42.3075 -85.5022 91° East 459 528 23,000 871 Level Chicago Center
12:36PM 42.3050 -85.3311 91° East 460 529 24,800 1,790 Climbing Chicago Center
12:37PM 42.3022 -85.1739 91° East 432 497 26,700 1,452 Climbing Chicago Center
12:38PM 42.2997 -85.0169 91° East 422 486 27,800 1,065 Climbing Chicago Center
12:39PM 42.2964 -84.8575 92° East 423 487 28,900 1,122 Climbing Chicago Center
12:40PM 42.3206 -84.6728 80° East 421 484 30,100 1,041 Climbing Chicago Center
12:41PM 42.3350 -84.6042 74° East 415 478 30,600 970 Climbing Cleveland Center
12:42PM 42.3681 -84.4525 74° East 417 480 31,700 1,122 Climbing Cleveland Center
12:43PM 42.4086 -84.2667 73° East 428 493 32,900 1,122 Climbing Cleveland Center
12:44PM 42.4425 -84.1103 74° East 430 495 34,000 968 Climbing Cleveland Center
12:45PM 42.4761 -83.9547 74° East 430 495 34,900 488 Climbing Cleveland Center
12:46PM 42.5103 -83.7956 74° East 435 501 35,000 49 Climbing Cleveland Center
12:47PM 42.5467 -83.6250 74° East 461 531 35,000  Level Cleveland Center
12:48PM 42.5828 -83.4492 74° East 473 544 35,000  Level Cleveland Center
12:49PM 42.6192 -83.2725 74° East 479 551 35,000  Level Cleveland Center
12:50PM 42.6561 -83.0969 74° East 480 552 35,000  Level Cleveland Center
12:51PM 42.6906 -82.9242 75° East 479 551 35,000  Level Cleveland Center
12:52PM 42.7264 -82.7525 74° East 473 544 35,000  Level Cleveland Center
12:53PM 42.7675 -82.5483 75° East 471 542 35,000  Level Cleveland Center
12:54PM 42.8008 -82.3800 75° East 466 536 35,000  Level Cleveland Center
12:56PM 42.8333 -82.0833 81° East 460 529 35,000  Level Toronto Center
12:57PM 42.8667 -81.9333 73° East 460 529 35,000  Level Toronto Center
12:58PM 42.9167 -81.7500 70° East 460 529 35,000  Level Toronto Center
12:59PM 42.9500 -81.6000 73° East 460 529 35,000  Level Toronto Center
01:00PM 42.9667 -81.4167 83° East 460 529 35,000  Level Toronto Center
01:01PM 43.0000 -81.2500 75° East 460 529 35,000  Level Toronto Center
01:02PM 43.0333 -81.1000 73° East 460 529 35,000  Level Toronto Center
01:03PM 43.1000 -80.9333 61° Northeast 450 518 35,000  Level Toronto Center
01:04PM 43.1833 -80.8000 49° Northeast 450 518 35,000  Level Toronto Center
01:05PM 43.2333 -80.6333 68° East 450 518 35,000  Level Toronto Center
01:06PM 43.3000 -80.4833 59° Northeast 450 518 35,000  Level Toronto Center
01:07PM 43.3500 -80.3500 63° Northeast 450 518 35,000  Level Toronto Center
01:08PM 43.4167 -80.1833 61° Northeast 460 529 35,000  Level Toronto Center
01:09PM 43.4833 -80.0500 55° Northeast 460 529 35,000  Level Toronto Center
01:10PM 43.5500 -79.8833 61° Northeast 460 529 35,000  Level Toronto Center
01:11PM 43.6000 -79.7333 65° Northeast 460 529 35,000  Level Toronto Center
01:12PM 43.6667 -79.5667 61° Northeast 460 529 35,000  Level Toronto Center
01:13PM 43.7000 -79.4000 74° East 460 529 35,000  Level Toronto Center
01:14PM 43.7500 -79.2333 67° East 460 529 35,000  Level Toronto Center
01:15PM 43.8000 -79.0833 65° Northeast 460 529 35,000  Level Toronto Center
01:16PM 43.8500 -78.9167 67° East 460 529 35,000  Level Toronto Center
01:17PM 43.9000 -78.7500 67° East 460 529 35,000  Level Toronto Center
01:18PM 43.9500 -78.5667 69° East 460 529 35,000  Level Toronto Center
01:19PM 43.9833 -78.4333 71° East 460 529 35,000  Level Toronto Center
01:20PM 44.0333 -78.2667 67° East 450 518 35,000  Level Toronto Center
01:21PM 44.1000 -78.1000 61° Northeast 450 518 35,000  Level Toronto Center
01:22PM 44.1500 -77.9667 62° Northeast 450 518 35,000 -500 Level Toronto Center
01:23PM 44.2333 -77.8167 52° Northeast 440 506 34,000 -1,350 Descending Toronto Center
01:24PM 44.2833 -77.6833 62° Northeast 440 506 32,300 -2,100 Descending Toronto Center
01:25PM 44.3667 -77.5333 52° Northeast 450 518 29,800 -2,700 Descending Toronto Center
01:26PM 44.4333 -77.3667 61° Northeast 450 518 26,900 -2,650 Descending Toronto Center
01:27PM 44.5000 -77.2167 58° Northeast 440 506 24,500 -2,400 Descending Toronto Center
01:28PM 44.5667 -77.0833 55° Northeast 460 529 22,100 -2,400 Descending Toronto Center
01:29PM 44.6333 -76.9333 58° Northeast 440 506 19,700 -2,550 Descending Toronto Center
01:30PM 44.7000 -76.8167 51° Northeast 410 472 17,000 -2,400 Descending Toronto Center
01:31PM 44.7667 -76.7000 51° Northeast 380 437 14,900 -2,050 Descending Toronto Center
01:32PM 44.8000 -76.6000 65° Northeast 350 403 12,900 -1,800 Descending Toronto Center
01:33PM 44.8667 -76.4833 51° Northeast 320 368 11,300 -1,600 Descending Toronto Center
01:34PM 44.9167 -76.4000 50° Northeast 300 345 9,700 -1,400 Descending Toronto Center
01:35PM 44.9500 -76.3167 61° Northeast 280 322 8,500 -1,200 Descending Toronto Center
01:36PM 45.0000 -76.2333 50° Northeast 250 288 7,300 -1,000 Descending Toronto Center
01:37PM 45.0500 -76.1667 43° Northeast 250 288 6,500 -800 Descending Toronto Center
01:38PM 45.0833 -76.0833 60° Northeast 240 276 5,700 -800 Descending Toronto Center
01:39PM 45.1167 -76.0167 55° Northeast 210 242 4,900 -850 Descending Toronto Center
01:40PM 45.1500 -75.9667 47° Northeast 210 242 4,000 -900 Descending Toronto Center
01:41PM 45.1833 -75.9000 55° Northeast 200 230 3,100 -500 Descending Toronto Center
01:42PM 45.2167 -75.8167 60° Northeast 190 219 3,000 -300 Descending Toronto Center
01:43PM 45.2500 -75.7667 47° Northeast 180 207 2,500 -650 Descending Toronto Center
01:44PM 45.2667 -75.7167 65° Northeast 150 173 1,700 -800 Descending Toronto Center
01:45PM 45.2833 -75.6667 65° Northeast 140 161 900 -650 Descending Toronto Center
01:46PM 45.3167 -75.6167 47° Northeast 130 150 400 -500 Descending Toronto Center